sensor_id;sensor_type;location;lat;lon;timestamp;temperature;humidity
5786;DHT22;2919;48.630;9.000;2022-09-09T00:01:27;14.70;99.90
5786;DHT22;2919;48.630;9.000;2022-09-09T00:11:48;14.60;99.90
5786;DHT22;2919;48.630;9.000;2022-09-09T00:16:55;14.60;99.90
5786;DHT22;2919;48.630;9.000;2022-09-09T00:19:44;14.70;99.90
5786;DHT22;2919;48.630;9.000;2022-09-09T00:22:20;14.70;99.90
5786;DHT22;2919;48.630;9.000;2022-09-09T00:24:51;14.80;99.90
5786;DHT22;2919;48.630;9.000;2022-09-09T00:27:41;14.80;99.90
5786;DHT22;2919;48.630;9.000;2022-09-09T00:32:41;14.90;99.90
5786;DHT22;2919;48.630;9.000;2022-09-09T00:35:24;14.90;99.90
5786;DHT22;2919;48.630;9.000;2022-09-09T00:37:54;14.90;99.90
5786;DHT22;2919;48.630;9.000;2022-09-09T00:40:34;14.80;99.90
5786;DHT22;2919;48.630;9.000;2022-09-09T00:43:06;14.80;99.90
5786;DHT22;2919;48.630;9.000;2022-09-09T00:48:24;14.80;99.90
5786;DHT22;2919;48.630;9.000;2022-09-09T00:51:06;14.70;99.90
5786;DHT22;2919;48.630;9.000;2022-09-09T00:56:36;14.60;99.90
5786;DHT22;2919;48.630;9.000;2022-09-09T01:01:36;14.50;99.90
5786;DHT22;2919;48.630;9.000;2022-09-09T01:04:06;14.50;99.90
5786;DHT22;2919;48.630;9.000;2022-09-09T01:06:37;14.50;99.90
5786;DHT22;2919;48.630;9.000;2022-09-09T01:10:05;14.50;99.90
5786;DHT22;2919;48.630;9.000;2022-09-09T01:14:40;14.50;99.90
5786;DHT22;2919;48.630;9.000;2022-09-09T01:20:12;14.30;99.90
5786;DHT22;2919;48.630;9.000;2022-09-09T01:27:36;14.30;99.90
5786;DHT22;2919;48.630;9.000;2022-09-09T01:30:11;14.20;99.90
5786;DHT22;2919;48.630;9.000;2022-09-09T01:32:46;14.20;99.90
5786;DHT22;2919;48.630;9.000;2022-09-09T01:35:29;14.20;99.90
5786;DHT22;2919;48.630;9.000;2022-09-09T01:37:58;14.20;99.90
5786;DHT22;2919;48.630;9.000;2022-09-09T01:40:24;14.10;99.90
5786;DHT22;2919;48.630;9.000;2022-09-09T01:42:51;14.10;99.90
5786;DHT22;2919;48.630;9.000;2022-09-09T01:45:18;14.10;99.90
5786;DHT22;2919;48.630;9.000;2022-09-09T01:47:44;14.10;99.90
5786;DHT22;2919;48.630;9.000;2022-09-09T01:50:12;14.00;99.90
5786;DHT22;2919;48.630;9.000;2022-09-09T01:52:39;13.90;99.90
5786;DHT22;2919;48.630;9.000;2022-09-09T01:55:05;13.90;99.90
5786;DHT22;2919;48.630;9.000;2022-09-09T01:57:39;13.80;99.90
5786;DHT22;2919;48.630;9.000;2022-09-09T02:00:12;13.70;99.90
5786;DHT22;2919;48.630;9.000;2022-09-09T02:02:40;13.90;99.90
5786;DHT22;2919;48.630;9.000;2022-09-09T02:07:52;14.00;99.90
5786;DHT22;2919;48.630;9.000;2022-09-09T02:10:32;14.10;99.90
5786;DHT22;2919;48.630;9.000;2022-09-09T02:13:05;14.10;99.90
5786;DHT22;2919;48.630;9.000;2022-09-09T02:18:28;14.10;99.90
5786;DHT22;2919;48.630;9.000;2022-09-09T02:20:56;14.00;99.90
5786;DHT22;2919;48.630;9.000;2022-09-09T02:23:23;14.00;99.90
5786;DHT22;2919;48.630;9.000;2022-09-09T02:25:50;14.00;99.90
5786;DHT22;2919;48.630;9.000;2022-09-09T02:28:18;13.90;99.90
5786;DHT22;2919;48.630;9.000;2022-09-09T02:30:48;13.80;99.90
5786;DHT22;2919;48.630;9.000;2022-09-09T02:33:22;13.80;99.90
5786;DHT22;2919;48.630;9.000;2022-09-09T02:35:51;13.70;99.90
5786;DHT22;2919;48.630;9.000;2022-09-09T02:38:18;13.70;99.90
5786;DHT22;2919;48.630;9.000;2022-09-09T02:40:46;13.70;99.90
5786;DHT22;2919;48.630;9.000;2022-09-09T02:43:14;13.60;99.90
5786;DHT22;2919;48.630;9.000;2022-09-09T02:45:58;13.50;99.90
5786;DHT22;2919;48.630;9.000;2022-09-09T02:51:45;13.40;99.90
5786;DHT22;2919;48.630;9.000;2022-09-09T02:54:45;13.30;99.90
5786;DHT22;2919;48.630;9.000;2022-09-09T02:57:17;13.20;99.90
5786;DHT22;2919;48.630;9.000;2022-09-09T02:59:44;13.20;99.90
5786;DHT22;2919;48.630;9.000;2022-09-09T03:02:10;13.20;99.90
5786;DHT22;2919;48.630;9.000;2022-09-09T03:04:37;13.10;99.90
5786;DHT22;2919;48.630;9.000;2022-09-09T03:07:03;13.10;99.90
5786;DHT22;2919;48.630;9.000;2022-09-09T03:09:29;13.10;99.90
5786;DHT22;2919;48.630;9.000;2022-09-09T03:11:55;13.10;99.90
5786;DHT22;2919;48.630;9.000;2022-09-09T03:14:21;13.00;99.90
5786;DHT22;2919;48.630;9.000;2022-09-09T03:16:53;13.00;99.90
5786;DHT22;2919;48.630;9.000;2022-09-09T03:19:20;13.00;99.90
5786;DHT22;2919;48.630;9.000;2022-09-09T03:21:47;13.00;99.90
5786;DHT22;2919;48.630;9.000;2022-09-09T03:24:13;13.00;99.90
5786;DHT22;2919;48.630;9.000;2022-09-09T03:26:40;13.10;99.90
5786;DHT22;2919;48.630;9.000;2022-09-09T03:29:06;13.00;99.90
5786;DHT22;2919;48.630;9.000;2022-09-09T03:31:33;13.00;99.90
5786;DHT22;2919;48.630;9.000;2022-09-09T03:33:59;13.00;99.90
5786;DHT22;2919;48.630;9.000;2022-09-09T03:36:26;12.80;99.90
5786;DHT22;2919;48.630;9.000;2022-09-09T03:38:52;12.80;99.90
5786;DHT22;2919;48.630;9.000;2022-09-09T03:41:20;12.80;99.90
5786;DHT22;2919;48.630;9.000;2022-09-09T03:43:46;12.80;99.90
5786;DHT22;2919;48.630;9.000;2022-09-09T03:46:11;12.80;99.90
5786;DHT22;2919;48.630;9.000;2022-09-09T03:48:37;12.80;99.90
5786;DHT22;2919;48.630;9.000;2022-09-09T03:51:03;12.80;99.90
5786;DHT22;2919;48.630;9.000;2022-09-09T03:53:29;12.90;99.90
5786;DHT22;2919;48.630;9.000;2022-09-09T03:55:55;12.90;99.90
5786;DHT22;2919;48.630;9.000;2022-09-09T03:58:25;12.80;99.90
5786;DHT22;2919;48.630;9.000;2022-09-09T04:01:03;12.90;99.90
5786;DHT22;2919;48.630;9.000;2022-09-09T04:03:30;12.90;99.90
5786;DHT22;2919;48.630;9.000;2022-09-09T04:05:57;12.90;99.90
5786;DHT22;2919;48.630;9.000;2022-09-09T04:08:23;12.90;99.90
5786;DHT22;2919;48.630;9.000;2022-09-09T04:10:52;12.90;99.90
5786;DHT22;2919;48.630;9.000;2022-09-09T04:13:19;12.90;99.90
5786;DHT22;2919;48.630;9.000;2022-09-09T04:15:52;13.00;99.90
5786;DHT22;2919;48.630;9.000;2022-09-09T04:18:18;13.10;99.90
5786;DHT22;2919;48.630;9.000;2022-09-09T04:20:46;13.20;99.90
5786;DHT22;2919;48.630;9.000;2022-09-09T04:23:13;13.30;99.90
5786;DHT22;2919;48.630;9.000;2022-09-09T04:25:46;13.50;99.90
5786;DHT22;2919;48.630;9.000;2022-09-09T04:28:13;13.50;99.90
5786;DHT22;2919;48.630;9.000;2022-09-09T04:30:39;13.60;99.90
5786;DHT22;2919;48.630;9.000;2022-09-09T04:33:05;13.70;99.90
5786;DHT22;2919;48.630;9.000;2022-09-09T04:35:32;13.80;99.90
5786;DHT22;2919;48.630;9.000;2022-09-09T04:37:58;13.80;99.90
5786;DHT22;2919;48.630;9.000;2022-09-09T04:40:24;13.80;99.90
5786;DHT22;2919;48.630;9.000;2022-09-09T04:42:50;13.90;99.90
5786;DHT22;2919;48.630;9.000;2022-09-09T04:45:16;13.90;99.90
5786;DHT22;2919;48.630;9.000;2022-09-09T04:47:43;13.90;99.90
5786;DHT22;2919;48.630;9.000;2022-09-09T04:50:09;13.90;99.90
5786;DHT22;2919;48.630;9.000;2022-09-09T04:52:35;14.00;99.90
5786;DHT22;2919;48.630;9.000;2022-09-09T04:55:01;14.00;99.90
5786;DHT22;2919;48.630;9.000;2022-09-09T04:57:27;14.00;99.90
5786;DHT22;2919;48.630;9.000;2022-09-09T04:59:54;13.90;99.90
5786;DHT22;2919;48.630;9.000;2022-09-09T05:02:19;13.90;99.90
5786;DHT22;2919;48.630;9.000;2022-09-09T05:04:45;14.00;99.90
5786;DHT22;2919;48.630;9.000;2022-09-09T05:07:11;14.00;99.90
5786;DHT22;2919;48.630;9.000;2022-09-09T05:09:36;14.10;99.90
5786;DHT22;2919;48.630;9.000;2022-09-09T05:12:02;14.10;99.90
5786;DHT22;2919;48.630;9.000;2022-09-09T05:14:28;14.10;99.90
5786;DHT22;2919;48.630;9.000;2022-09-09T05:16:54;14.20;99.90
5786;DHT22;2919;48.630;9.000;2022-09-09T05:19:21;14.20;99.90
5786;DHT22;2919;48.630;9.000;2022-09-09T05:21:47;14.20;99.90
5786;DHT22;2919;48.630;9.000;2022-09-09T05:24:12;14.10;99.90
5786;DHT22;2919;48.630;9.000;2022-09-09T05:26:38;14.20;99.90
5786;DHT22;2919;48.630;9.000;2022-09-09T05:29:04;14.20;99.90
5786;DHT22;2919;48.630;9.000;2022-09-09T05:31:30;14.30;99.90
5786;DHT22;2919;48.630;9.000;2022-09-09T05:33:56;14.20;99.90
5786;DHT22;2919;48.630;9.000;2022-09-09T05:36:22;14.20;99.90
5786;DHT22;2919;48.630;9.000;2022-09-09T05:38:49;14.30;99.90
5786;DHT22;2919;48.630;9.000;2022-09-09T05:41:16;14.30;99.90
5786;DHT22;2919;48.630;9.000;2022-09-09T05:43:43;14.30;99.90
5786;DHT22;2919;48.630;9.000;2022-09-09T05:46:21;14.40;99.90
5786;DHT22;2919;48.630;9.000;2022-09-09T05:48:48;14.50;99.90
5786;DHT22;2919;48.630;9.000;2022-09-09T05:51:18;14.30;99.90
5786;DHT22;2919;48.630;9.000;2022-09-09T05:53:44;14.30;99.90
5786;DHT22;2919;48.630;9.000;2022-09-09T05:56:15;14.30;99.90
5786;DHT22;2919;48.630;9.000;2022-09-09T05:58:41;14.30;99.90
5786;DHT22;2919;48.630;9.000;2022-09-09T06:01:12;14.40;99.90
5786;DHT22;2919;48.630;9.000;2022-09-09T06:03:40;14.40;99.90
5786;DHT22;2919;48.630;9.000;2022-09-09T06:06:14;14.40;99.90
5786;DHT22;2919;48.630;9.000;2022-09-09T06:08:41;14.40;99.90
5786;DHT22;2919;48.630;9.000;2022-09-09T06:11:11;14.40;99.90
5786;DHT22;2919;48.630;9.000;2022-09-09T06:13:38;14.50;99.90
5786;DHT22;2919;48.630;9.000;2022-09-09T06:16:05;14.50;99.90
5786;DHT22;2919;48.630;9.000;2022-09-09T06:18:32;14.60;99.90
5786;DHT22;2919;48.630;9.000;2022-09-09T06:20:59;14.70;99.90
5786;DHT22;2919;48.630;9.000;2022-09-09T06:23:27;14.80;99.90
5786;DHT22;2919;48.630;9.000;2022-09-09T06:28:28;14.90;99.90
5786;DHT22;2919;48.630;9.000;2022-09-09T06:30:58;14.90;99.90
5786;DHT22;2919;48.630;9.000;2022-09-09T06:33:24;15.00;99.90
5786;DHT22;2919;48.630;9.000;2022-09-09T06:35:53;15.10;99.90
5786;DHT22;2919;48.630;9.000;2022-09-09T06:38:20;15.10;99.90
5786;DHT22;2919;48.630;9.000;2022-09-09T06:40:54;15.10;99.90
5786;DHT22;2919;48.630;9.000;2022-09-09T06:43:21;15.10;99.90
5786;DHT22;2919;48.630;9.000;2022-09-09T06:48:20;15.30;99.90
5786;DHT22;2919;48.630;9.000;2022-09-09T06:50:45;15.30;99.90
5786;DHT22;2919;48.630;9.000;2022-09-09T06:53:11;15.40;99.90
5786;DHT22;2919;48.630;9.000;2022-09-09T06:55:37;15.40;99.90
5786;DHT22;2919;48.630;9.000;2022-09-09T06:58:08;15.50;99.90
5786;DHT22;2919;48.630;9.000;2022-09-09T07:00:33;15.50;99.90
5786;DHT22;2919;48.630;9.000;2022-09-09T07:02:59;15.60;99.90
5786;DHT22;2919;48.630;9.000;2022-09-09T07:05:24;15.60;99.90
5786;DHT22;2919;48.630;9.000;2022-09-09T07:07:51;15.70;99.90
5786;DHT22;2919;48.630;9.000;2022-09-09T07:10:17;15.70;99.90
5786;DHT22;2919;48.630;9.000;2022-09-09T07:12:43;15.80;99.90
5786;DHT22;2919;48.630;9.000;2022-09-09T07:15:08;15.90;99.90
5786;DHT22;2919;48.630;9.000;2022-09-09T07:17:35;16.00;99.90
5786;DHT22;2919;48.630;9.000;2022-09-09T07:20:01;16.10;99.90
5786;DHT22;2919;48.630;9.000;2022-09-09T07:22:28;16.20;99.90
5786;DHT22;2919;48.630;9.000;2022-09-09T07:24:53;16.20;99.90
5786;DHT22;2919;48.630;9.000;2022-09-09T07:27:19;16.40;99.90
5786;DHT22;2919;48.630;9.000;2022-09-09T07:29:45;16.60;99.90
5786;DHT22;2919;48.630;9.000;2022-09-09T07:32:11;16.60;99.90
5786;DHT22;2919;48.630;9.000;2022-09-09T07:34:36;16.80;99.90
5786;DHT22;2919;48.630;9.000;2022-09-09T07:37:02;17.20;99.90
5786;DHT22;2919;48.630;9.000;2022-09-09T07:39:28;17.40;99.90
5786;DHT22;2919;48.630;9.000;2022-09-09T07:41:53;17.50;99.90
5786;DHT22;2919;48.630;9.000;2022-09-09T07:44:24;17.50;99.90
5786;DHT22;2919;48.630;9.000;2022-09-09T07:46:50;17.50;99.90
5786;DHT22;2919;48.630;9.000;2022-09-09T07:49:16;17.40;99.90
5786;DHT22;2919;48.630;9.000;2022-09-09T07:51:44;17.60;99.90
5786;DHT22;2919;48.630;9.000;2022-09-09T07:54:13;18.20;99.90
5786;DHT22;2919;48.630;9.000;2022-09-09T07:56:40;19.00;99.90
5786;DHT22;2919;48.630;9.000;2022-09-09T07:59:07;19.90;99.90
5786;DHT22;2919;48.630;9.000;2022-09-09T08:01:35;20.60;98.40
5786;DHT22;2919;48.630;9.000;2022-09-09T08:04:06;21.00;97.40
5786;DHT22;2919;48.630;9.000;2022-09-09T08:06:39;21.20;96.70
5786;DHT22;2919;48.630;9.000;2022-09-09T08:09:06;22.00;95.60
5786;DHT22;2919;48.630;9.000;2022-09-09T08:11:32;22.30;95.10
5786;DHT22;2919;48.630;9.000;2022-09-09T08:13:59;22.60;94.10
5786;DHT22;2919;48.630;9.000;2022-09-09T08:16:27;22.70;93.90
5786;DHT22;2919;48.630;9.000;2022-09-09T08:18:53;22.90;93.90
5786;DHT22;2919;48.630;9.000;2022-09-09T08:21:25;22.90;93.50
5786;DHT22;2919;48.630;9.000;2022-09-09T08:23:53;22.90;93.40
5786;DHT22;2919;48.630;9.000;2022-09-09T08:26:21;22.80;93.50
5786;DHT22;2919;48.630;9.000;2022-09-09T08:28:50;22.60;93.30
5786;DHT22;2919;48.630;9.000;2022-09-09T08:31:19;22.40;93.60
5786;DHT22;2919;48.630;9.000;2022-09-09T08:33:46;22.50;93.70
5786;DHT22;2919;48.630;9.000;2022-09-09T08:36:15;22.60;93.10
5786;DHT22;2919;48.630;9.000;2022-09-09T08:38:41;22.50;92.60
5786;DHT22;2919;48.630;9.000;2022-09-09T08:46:59;23.70;91.60
5786;DHT22;2919;48.630;9.000;2022-09-09T08:52:01;24.70;89.80
5786;DHT22;2919;48.630;9.000;2022-09-09T08:54:32;24.60;88.80
5786;DHT22;2919;48.630;9.000;2022-09-09T08:56:58;24.00;89.70
5786;DHT22;2919;48.630;9.000;2022-09-09T08:59:24;24.00;89.90
5786;DHT22;2919;48.630;9.000;2022-09-09T09:02:01;23.90;89.30
5786;DHT22;2919;48.630;9.000;2022-09-09T09:07:32;21.70;94.20
5786;DHT22;2919;48.630;9.000;2022-09-09T09:12:55;19.60;99.90
5786;DHT22;2919;48.630;9.000;2022-09-09T09:15:26;18.90;99.90
5786;DHT22;2919;48.630;9.000;2022-09-09T09:17:55;18.60;99.90
5786;DHT22;2919;48.630;9.000;2022-09-09T09:23:24;18.90;99.10
5786;DHT22;2919;48.630;9.000;2022-09-09T09:25:54;19.20;99.90
5786;DHT22;2919;48.630;9.000;2022-09-09T09:28:25;19.20;99.90
5786;DHT22;2919;48.630;9.000;2022-09-09T09:31:03;19.20;99.90
5786;DHT22;2919;48.630;9.000;2022-09-09T09:33:50;19.00;99.90
5786;DHT22;2919;48.630;9.000;2022-09-09T09:36:18;19.00;99.90
5786;DHT22;2919;48.630;9.000;2022-09-09T09:38:56;19.00;99.90
5786;DHT22;2919;48.630;9.000;2022-09-09T09:43:56;19.20;99.90
5786;DHT22;2919;48.630;9.000;2022-09-09T09:46:24;19.50;99.90
5786;DHT22;2919;48.630;9.000;2022-09-09T09:49:04;19.70;99.90
5786;DHT22;2919;48.630;9.000;2022-09-09T09:51:32;20.20;99.90
5786;DHT22;2919;48.630;9.000;2022-09-09T09:56:39;20.80;99.90
5786;DHT22;2919;48.630;9.000;2022-09-09T09:59:05;21.00;96.30
5786;DHT22;2919;48.630;9.000;2022-09-09T10:01:44;21.10;95.60
5786;DHT22;2919;48.630;9.000;2022-09-09T10:04:21;21.30;96.10
5786;DHT22;2919;48.630;9.000;2022-09-09T10:06:49;21.60;94.60
5786;DHT22;2919;48.630;9.000;2022-09-09T10:14:28;22.10;93.20
5786;DHT22;2919;48.630;9.000;2022-09-09T10:19:46;22.30;91.20
5786;DHT22;2919;48.630;9.000;2022-09-09T10:22:34;22.00;95.80
5786;DHT22;2919;48.630;9.000;2022-09-09T10:33:04;22.10;97.20
5786;DHT22;2919;48.630;9.000;2022-09-09T10:43:55;22.30;94.60
5786;DHT22;2919;48.630;9.000;2022-09-09T10:55:10;21.30;93.50
5786;DHT22;2919;48.630;9.000;2022-09-09T10:57:47;21.00;95.70
5786;DHT22;2919;48.630;9.000;2022-09-09T11:00:20;20.70;95.20
5786;DHT22;2919;48.630;9.000;2022-09-09T11:02:58;20.60;94.70
5786;DHT22;2919;48.630;9.000;2022-09-09T11:05:40;20.20;93.80
5786;DHT22;2919;48.630;9.000;2022-09-09T11:08:18;19.70;93.40
5786;DHT22;2919;48.630;9.000;2022-09-09T11:15:57;18.80;95.40
5786;DHT22;2919;48.630;9.000;2022-09-09T11:18:25;18.60;95.60
5786;DHT22;2919;48.630;9.000;2022-09-09T11:20:55;18.50;96.60
5786;DHT22;2919;48.630;9.000;2022-09-09T11:23:32;18.30;95.90
5786;DHT22;2919;48.630;9.000;2022-09-09T11:26:01;17.80;95.80
5786;DHT22;2919;48.630;9.000;2022-09-09T11:28:50;17.70;96.60
5786;DHT22;2919;48.630;9.000;2022-09-09T11:32:34;17.70;97.00
5786;DHT22;2919;48.630;9.000;2022-09-09T11:37:53;17.90;96.60
5786;DHT22;2919;48.630;9.000;2022-09-09T11:40:24;17.80;96.40
5786;DHT22;2919;48.630;9.000;2022-09-09T11:43:09;18.00;96.90
5786;DHT22;2919;48.630;9.000;2022-09-09T11:45:38;18.20;96.50
5786;DHT22;2919;48.630;9.000;2022-09-09T11:48:05;18.40;95.90
5786;DHT22;2919;48.630;9.000;2022-09-09T11:50:35;18.60;95.60
5786;DHT22;2919;48.630;9.000;2022-09-09T11:53:20;18.80;95.30
5786;DHT22;2919;48.630;9.000;2022-09-09T11:55:59;19.00;94.20
5786;DHT22;2919;48.630;9.000;2022-09-09T11:58:25;19.10;95.50
5786;DHT22;2919;48.630;9.000;2022-09-09T12:00:50;19.60;93.70
5786;DHT22;2919;48.630;9.000;2022-09-09T12:08:44;20.50;91.90
5786;DHT22;2919;48.630;9.000;2022-09-09T12:11:10;20.60;92.10
5786;DHT22;2919;48.630;9.000;2022-09-09T12:13:36;20.90;90.90
5786;DHT22;2919;48.630;9.000;2022-09-09T12:16:02;21.00;90.90
5786;DHT22;2919;48.630;9.000;2022-09-09T12:18:38;21.00;90.50
5786;DHT22;2919;48.630;9.000;2022-09-09T12:24:08;20.80;91.00
5786;DHT22;2919;48.630;9.000;2022-09-09T12:34:40;20.20;92.30
5786;DHT22;2919;48.630;9.000;2022-09-09T12:37:17;20.20;92.50
5786;DHT22;2919;48.630;9.000;2022-09-09T12:39:49;20.20;92.80
5786;DHT22;2919;48.630;9.000;2022-09-09T12:42:18;20.30;92.30
5786;DHT22;2919;48.630;9.000;2022-09-09T12:44:55;20.30;92.40
5786;DHT22;2919;48.630;9.000;2022-09-09T12:47:59;20.40;91.20
5786;DHT22;2919;48.630;9.000;2022-09-09T12:50:29;20.20;91.00
5786;DHT22;2919;48.630;9.000;2022-09-09T12:52:58;19.90;90.00
5786;DHT22;2919;48.630;9.000;2022-09-09T12:55:28;19.90;90.50
5786;DHT22;2919;48.630;9.000;2022-09-09T12:57:56;20.10;90.30
5786;DHT22;2919;48.630;9.000;2022-09-09T13:00:24;20.10;90.00
5786;DHT22;2919;48.630;9.000;2022-09-09T13:02:51;20.20;90.60
5786;DHT22;2919;48.630;9.000;2022-09-09T13:05:23;20.40;89.80
5786;DHT22;2919;48.630;9.000;2022-09-09T13:07:50;20.90;88.00
5786;DHT22;2919;48.630;9.000;2022-09-09T13:10:24;20.90;89.60
5786;DHT22;2919;48.630;9.000;2022-09-09T13:12:50;21.30;89.90
5786;DHT22;2919;48.630;9.000;2022-09-09T13:15:34;21.60;88.00
5786;DHT22;2919;48.630;9.000;2022-09-09T13:18:03;21.70;84.90
5786;DHT22;2919;48.630;9.000;2022-09-09T13:20:31;21.90;86.40
5786;DHT22;2919;48.630;9.000;2022-09-09T13:22:57;22.30;87.70
5786;DHT22;2919;48.630;9.000;2022-09-09T13:25:28;22.10;87.20
5786;DHT22;2919;48.630;9.000;2022-09-09T13:28:02;21.70;88.20
5786;DHT22;2919;48.630;9.000;2022-09-09T13:30:36;21.20;88.10
5786;DHT22;2919;48.630;9.000;2022-09-09T13:36:12;21.40;88.10
5786;DHT22;2919;48.630;9.000;2022-09-09T13:41:28;21.80;87.40
5786;DHT22;2919;48.630;9.000;2022-09-09T13:43:56;21.90;84.40
5786;DHT22;2919;48.630;9.000;2022-09-09T13:46:43;22.20;82.60
5786;DHT22;2919;48.630;9.000;2022-09-09T13:51:44;22.10;83.30
5786;DHT22;2919;48.630;9.000;2022-09-09T13:54:13;22.00;82.30
5786;DHT22;2919;48.630;9.000;2022-09-09T13:56:40;22.00;80.80
5786;DHT22;2919;48.630;9.000;2022-09-09T13:59:11;22.00;82.30
5786;DHT22;2919;48.630;9.000;2022-09-09T14:01:37;22.00;82.00
5786;DHT22;2919;48.630;9.000;2022-09-09T14:04:03;21.90;81.60
5786;DHT22;2919;48.630;9.000;2022-09-09T14:06:30;21.90;78.80
5786;DHT22;2919;48.630;9.000;2022-09-09T14:08:57;21.60;78.30
5786;DHT22;2919;48.630;9.000;2022-09-09T14:11:23;21.30;79.20
5786;DHT22;2919;48.630;9.000;2022-09-09T14:13:49;21.30;78.80
5786;DHT22;2919;48.630;9.000;2022-09-09T14:16:18;21.60;77.50
5786;DHT22;2919;48.630;9.000;2022-09-09T14:18:44;21.50;77.50
5786;DHT22;2919;48.630;9.000;2022-09-09T14:21:11;21.40;77.00
5786;DHT22;2919;48.630;9.000;2022-09-09T14:23:37;21.30;77.20
5786;DHT22;2919;48.630;9.000;2022-09-09T14:26:04;21.00;78.60
5786;DHT22;2919;48.630;9.000;2022-09-09T14:28:29;21.00;79.10
5786;DHT22;2919;48.630;9.000;2022-09-09T14:31:02;21.20;77.60
5786;DHT22;2919;48.630;9.000;2022-09-09T14:33:29;21.20;76.90
5786;DHT22;2919;48.630;9.000;2022-09-09T14:35:59;21.40;77.90
5786;DHT22;2919;48.630;9.000;2022-09-09T14:38:28;21.40;77.80
5786;DHT22;2919;48.630;9.000;2022-09-09T14:40:54;21.50;77.50
5786;DHT22;2919;48.630;9.000;2022-09-09T14:43:19;21.50;76.70
5786;DHT22;2919;48.630;9.000;2022-09-09T14:45:46;21.40;76.70
5786;DHT22;2919;48.630;9.000;2022-09-09T14:48:13;21.40;77.10
5786;DHT22;2919;48.630;9.000;2022-09-09T14:50:40;21.40;78.50
5786;DHT22;2919;48.630;9.000;2022-09-09T14:53:06;21.30;79.30
5786;DHT22;2919;48.630;9.000;2022-09-09T14:55:34;21.00;80.00
5786;DHT22;2919;48.630;9.000;2022-09-09T14:58:00;20.70;80.60
5786;DHT22;2919;48.630;9.000;2022-09-09T15:00:25;20.80;81.90
5786;DHT22;2919;48.630;9.000;2022-09-09T15:02:54;20.80;82.40
5786;DHT22;2919;48.630;9.000;2022-09-09T15:05:20;21.10;81.50
5786;DHT22;2919;48.630;9.000;2022-09-09T15:07:46;21.30;81.80
5786;DHT22;2919;48.630;9.000;2022-09-09T15:10:14;21.40;81.00
5786;DHT22;2919;48.630;9.000;2022-09-09T15:12:39;21.70;81.10
5786;DHT22;2919;48.630;9.000;2022-09-09T15:15:07;21.70;81.30
5786;DHT22;2919;48.630;9.000;2022-09-09T15:17:33;21.60;81.00
5786;DHT22;2919;48.630;9.000;2022-09-09T15:19:59;21.30;80.20
5786;DHT22;2919;48.630;9.000;2022-09-09T15:22:25;21.00;80.20
5786;DHT22;2919;48.630;9.000;2022-09-09T15:24:50;20.80;79.80
5786;DHT22;2919;48.630;9.000;2022-09-09T15:27:16;20.70;80.20
5786;DHT22;2919;48.630;9.000;2022-09-09T15:29:43;20.60;79.00
5786;DHT22;2919;48.630;9.000;2022-09-09T15:32:09;20.40;79.30
5786;DHT22;2919;48.630;9.000;2022-09-09T15:34:35;20.30;79.70
5786;DHT22;2919;48.630;9.000;2022-09-09T15:37:00;20.00;80.20
5786;DHT22;2919;48.630;9.000;2022-09-09T15:39:26;19.80;81.20
5786;DHT22;2919;48.630;9.000;2022-09-09T15:41:52;19.70;80.90
5786;DHT22;2919;48.630;9.000;2022-09-09T15:44:17;19.60;81.40
5786;DHT22;2919;48.630;9.000;2022-09-09T15:46:46;19.50;82.80
5786;DHT22;2919;48.630;9.000;2022-09-09T15:51:43;19.40;83.50
5786;DHT22;2919;48.630;9.000;2022-09-09T15:54:14;19.30;84.00
5786;DHT22;2919;48.630;9.000;2022-09-09T15:56:55;19.30;83.60
5786;DHT22;2919;48.630;9.000;2022-09-09T15:59:22;19.30;84.70
5786;DHT22;2919;48.630;9.000;2022-09-09T16:01:48;19.20;83.60
5786;DHT22;2919;48.630;9.000;2022-09-09T16:04:17;19.20;85.00
5786;DHT22;2919;48.630;9.000;2022-09-09T16:06:49;19.10;84.30
5786;DHT22;2919;48.630;9.000;2022-09-09T16:09:16;19.00;85.30
5786;DHT22;2919;48.630;9.000;2022-09-09T16:11:41;19.00;85.60
5786;DHT22;2919;48.630;9.000;2022-09-09T16:14:07;19.00;86.20
5786;DHT22;2919;48.630;9.000;2022-09-09T16:16:34;19.00;85.40
5786;DHT22;2919;48.630;9.000;2022-09-09T16:19:04;19.00;84.10
5786;DHT22;2919;48.630;9.000;2022-09-09T16:21:34;19.10;84.00
5786;DHT22;2919;48.630;9.000;2022-09-09T16:24:01;19.20;83.50
5786;DHT22;2919;48.630;9.000;2022-09-09T16:26:29;19.30;84.20
5786;DHT22;2919;48.630;9.000;2022-09-09T16:28:55;19.10;81.20
5786;DHT22;2919;48.630;9.000;2022-09-09T16:31:24;18.90;83.10
5786;DHT22;2919;48.630;9.000;2022-09-09T16:33:50;18.80;83.70
5786;DHT22;2919;48.630;9.000;2022-09-09T16:36:21;18.70;84.00
5786;DHT22;2919;48.630;9.000;2022-09-09T16:38:47;18.60;86.10
5786;DHT22;2919;48.630;9.000;2022-09-09T16:41:14;18.60;86.10
5786;DHT22;2919;48.630;9.000;2022-09-09T16:43:40;18.40;88.70
5786;DHT22;2919;48.630;9.000;2022-09-09T16:46:17;18.40;90.40
5786;DHT22;2919;48.630;9.000;2022-09-09T16:48:45;18.20;91.00
5786;DHT22;2919;48.630;9.000;2022-09-09T16:51:22;18.20;90.30
5786;DHT22;2919;48.630;9.000;2022-09-09T16:53:52;18.20;90.60
5786;DHT22;2919;48.630;9.000;2022-09-09T16:56:24;18.20;90.60
5786;DHT22;2919;48.630;9.000;2022-09-09T16:58:55;18.10;91.20
5786;DHT22;2919;48.630;9.000;2022-09-09T17:01:22;17.90;91.10
5786;DHT22;2919;48.630;9.000;2022-09-09T17:03:52;17.90;91.80
5786;DHT22;2919;48.630;9.000;2022-09-09T17:06:18;17.80;91.90
5786;DHT22;2919;48.630;9.000;2022-09-09T17:08:44;17.80;91.60
5786;DHT22;2919;48.630;9.000;2022-09-09T17:11:17;17.80;91.80
5786;DHT22;2919;48.630;9.000;2022-09-09T17:13:44;17.80;92.40
5786;DHT22;2919;48.630;9.000;2022-09-09T17:16:11;17.80;92.60
5786;DHT22;2919;48.630;9.000;2022-09-09T17:18:37;17.80;92.20
5786;DHT22;2919;48.630;9.000;2022-09-09T17:21:08;17.70;92.00
5786;DHT22;2919;48.630;9.000;2022-09-09T17:23:35;17.70;92.40
5786;DHT22;2919;48.630;9.000;2022-09-09T17:26:04;17.60;92.40
5786;DHT22;2919;48.630;9.000;2022-09-09T17:28:31;17.50;92.90
5786;DHT22;2919;48.630;9.000;2022-09-09T17:30:58;17.40;93.40
5786;DHT22;2919;48.630;9.000;2022-09-09T17:33:28;17.30;93.50
5786;DHT22;2919;48.630;9.000;2022-09-09T17:35:58;17.20;94.10
5786;DHT22;2919;48.630;9.000;2022-09-09T17:38:25;17.20;93.70
5786;DHT22;2919;48.630;9.000;2022-09-09T17:41:02;17.20;94.00
5786;DHT22;2919;48.630;9.000;2022-09-09T17:43:27;17.00;94.00
5786;DHT22;2919;48.630;9.000;2022-09-09T17:45:53;17.00;94.20
5786;DHT22;2919;48.630;9.000;2022-09-09T17:48:19;16.90;94.50
5786;DHT22;2919;48.630;9.000;2022-09-09T17:50:44;16.80;94.60
5786;DHT22;2919;48.630;9.000;2022-09-09T17:53:10;16.80;95.20
5786;DHT22;2919;48.630;9.000;2022-09-09T17:55:36;16.70;95.20
5786;DHT22;2919;48.630;9.000;2022-09-09T17:58:01;16.60;95.40
5786;DHT22;2919;48.630;9.000;2022-09-09T18:00:27;16.60;95.70
5786;DHT22;2919;48.630;9.000;2022-09-09T18:02:55;16.60;95.70
5786;DHT22;2919;48.630;9.000;2022-09-09T18:05:21;16.60;95.90
5786;DHT22;2919;48.630;9.000;2022-09-09T18:07:46;16.60;96.00
5786;DHT22;2919;48.630;9.000;2022-09-09T18:10:13;16.60;96.20
5786;DHT22;2919;48.630;9.000;2022-09-09T18:12:39;16.60;96.20
5786;DHT22;2919;48.630;9.000;2022-09-09T18:15:05;16.60;96.10
5786;DHT22;2919;48.630;9.000;2022-09-09T18:17:31;16.60;96.30
5786;DHT22;2919;48.630;9.000;2022-09-09T18:19:57;16.60;96.40
5786;DHT22;2919;48.630;9.000;2022-09-09T18:22:22;16.60;96.40
5786;DHT22;2919;48.630;9.000;2022-09-09T18:24:48;16.50;96.50
5786;DHT22;2919;48.630;9.000;2022-09-09T18:27:14;16.50;96.20
5786;DHT22;2919;48.630;9.000;2022-09-09T18:29:40;16.50;96.20
5786;DHT22;2919;48.630;9.000;2022-09-09T18:32:06;16.60;96.30